Time;durP1;ratioP1;P1;durP2;ratioP2;P2;SDS_P1;SDS_P2;PMS_P1;PMS_P2;Temp;Humidity;BMP_temperature;BMP_pressure;BME280_temperature;BME280_humidity;BME280_pressure;Samples;Min_cycle;Max_cycle;Signal;HPM_P1;HPM_P2
2023/09/20 00:00:24;;;;;;;10.15;5.28;;;16.40;99.90;;;;;;5080951;27;20764;-69
2023/09/20 00:03:15;;;;;;;6.30;4.75;;;16.40;99.90;;;;;;5009420;27;20581;-70
2023/09/20 00:06:06;;;;;;;7.43;4.72;;;16.30;99.90;;;;;;5005380;28;20233;-69
2023/09/20 00:08:55;;;;;;;6.75;4.65;;;16.30;99.90;;;;;;5013906;27;20234;-70
2023/09/20 00:11:46;;;;;;;5.90;5.15;;;16.30;99.90;;;;;;5031721;27;20219;-70
2023/09/20 00:14:35;;;;;;;8.02;4.80;;;16.30;99.90;;;;;;5006043;28;20253;-70
2023/09/20 00:17:26;;;;;;;10.18;4.97;;;16.30;99.90;;;;;;5090691;27;20238;-70
2023/09/20 00:20:16;;;;;;;5.93;4.63;;;16.30;99.90;;;;;;5001009;28;20264;-70
2023/09/20 00:23:07;;;;;;;8.45;4.80;;;16.30;99.90;;;;;;5066237;28;20225;-70
2023/09/20 00:25:56;;;;;;;8.15;4.68;;;16.20;99.90;;;;;;5028154;28;20723;-70
2023/09/20 00:28:48;;;;;;;6.60;4.43;;;16.10;99.90;;;;;;5043972;27;20274;-71
2023/09/20 00:31:38;;;;;;;8.57;4.60;;;16.10;99.90;;;;;;5096450;27;20341;-70
2023/09/20 00:34:31;;;;;;;8.43;4.95;;;16.10;99.90;;;;;;4997374;28;20242;-72
2023/09/20 00:37:20;;;;;;;7.65;4.60;;;16.10;99.90;;;;;;5081268;27;20222;-71
2023/09/20 00:40:15;;;;;;;7.10;4.65;;;16.20;99.90;;;;;;5003706;28;20247;-72
2023/09/20 00:43:06;;;;;;;7.22;4.72;;;16.10;99.90;;;;;;5001699;28;20221;-71
2023/09/20 00:45:55;;;;;;;6.75;4.60;;;16.20;99.90;;;;;;5022999;28;20224;-72
2023/09/20 00:48:45;;;;;;;6.30;4.25;;;16.10;99.90;;;;;;5000333;28;20824;-72
2023/09/20 00:51:35;;;;;;;7.00;4.43;;;16.00;99.90;;;;;;5086645;27;20222;-72
2023/09/20 00:54:25;;;;;;;14.13;4.88;;;15.80;99.90;;;;;;5020200;28;20230;-72
2023/09/20 00:57:14;;;;;;;5.75;4.25;;;15.90;99.90;;;;;;5015360;28;20220;-71
2023/09/20 01:00:14;;;;;;;7.22;4.68;;;15.90;99.90;;;;;;5046320;27;20226;-70
2023/09/20 01:03:06;;;;;;;7.28;4.57;;;15.90;99.90;;;;;;5043395;27;20218;-72
2023/09/20 01:05:57;;;;;;;7.90;4.32;;;15.90;99.90;;;;;;4997526;28;21022;-73
2023/09/20 01:08:48;;;;;;;7.63;4.82;;;15.80;99.90;;;;;;4997412;28;20244;-71
2023/09/20 01:11:37;;;;;;;7.00;4.35;;;15.90;99.90;;;;;;5012665;28;20222;-71
2023/09/20 01:14:27;;;;;;;8.07;4.60;;;15.90;99.90;;;;;;5021913;28;20717;-71
2023/09/20 01:17:17;;;;;;;7.40;4.53;;;15.90;99.90;;;;;;5083422;27;20230;-71
2023/09/20 01:20:12;;;;;;;12.35;4.90;;;15.90;99.90;;;;;;5007109;28;20218;-72
2023/09/20 01:23:03;;;;;;;5.65;4.30;;;15.90;99.90;;;;;;5025046;27;20300;-72
2023/09/20 01:25:56;;;;;;;6.93;4.60;;;15.90;99.90;;;;;;5006910;28;20297;-72
2023/09/20 01:28:45;;;;;;;6.97;4.43;;;15.80;99.90;;;;;;4998006;28;20222;-73
2023/09/20 01:31:37;;;;;;;9.48;4.40;;;15.70;99.90;;;;;;4998616;28;20233;-71
2023/09/20 01:34:25;;;;;;;6.82;4.15;;;15.80;99.90;;;;;;5008286;28;20706;-72
2023/09/20 01:37:14;;;;;;;6.70;4.28;;;15.60;99.90;;;;;;5022950;27;20222;-70
2023/09/20 01:40:15;;;;;;;4.53;3.75;;;15.70;99.90;;;;;;5006322;28;20894;-69
2023/09/20 01:43:06;;;;;;;6.88;4.07;;;15.60;99.90;;;;;;5075839;27;20214;-69
2023/09/20 01:45:55;;;;;;;5.68;4.10;;;15.60;99.90;;;;;;5001446;28;20233;-72
2023/09/20 01:48:44;;;;;;;19.48;11.60;;;15.70;99.90;;;;;;5005797;28;20236;-71
2023/09/20 01:51:34;;;;;;;10.45;4.53;;;15.60;99.90;;;;;;5012414;28;20230;-70
2023/09/20 01:54:23;;;;;;;5.05;4.32;;;15.60;99.90;;;;;;5079846;27;20321;-71
2023/09/20 01:57:14;;;;;;;8.52;4.28;;;15.60;99.90;;;;;;5034077;27;20301;-71
2023/09/20 02:00:09;;;;;;;9.20;4.50;;;15.50;99.90;;;;;;5085887;27;20222;-69
2023/09/20 02:03:05;;;;;;;7.63;4.28;;;15.50;99.90;;;;;;5012953;28;20330;-70
2023/09/20 02:05:55;;;;;;;9.05;4.65;;;15.60;99.90;;;;;;5081313;27;20237;-68
2023/09/20 02:08:44;;;;;;;5.00;4.07;;;15.60;99.90;;;;;;5078090;27;20234;-69
2023/09/20 02:11:34;;;;;;;4.38;3.78;;;15.50;99.90;;;;;;5000222;28;20248;-70
2023/09/20 02:14:24;;;;;;;7.63;4.43;;;15.50;99.90;;;;;;5005811;27;20224;-70
2023/09/20 02:17:13;;;;;;;8.60;4.50;;;15.60;99.90;;;;;;5004001;28;20244;-69
2023/09/20 02:20:08;;;;;;;6.00;4.10;;;15.60;99.90;;;;;;5008708;28;20213;-69
2023/09/20 02:22:57;;;;;;;6.18;4.20;;;15.50;99.90;;;;;;5001416;28;20224;-69
2023/09/20 02:25:48;;;;;;;6.03;4.00;;;15.50;99.90;;;;;;5016425;28;20218;-70
2023/09/20 02:28:37;;;;;;;5.50;3.97;;;15.60;99.90;;;;;;5089994;27;20313;-70
2023/09/20 02:31:27;;;;;;;5.32;4.00;;;15.50;99.90;;;;;;5017618;28;20264;-71
2023/09/20 02:34:17;;;;;;;7.03;3.92;;;15.60;99.90;;;;;;5018798;27;20365;-70
2023/09/20 02:37:07;;;;;;;8.07;4.15;;;15.50;99.90;;;;;;5084593;27;20220;-69
2023/09/20 02:39:55;;;;;;;9.10;4.88;;;15.40;99.90;;;;;;5082743;27;20229;-69
2023/09/20 02:42:46;;;;;;;6.25;4.05;;;15.40;99.90;;;;;;5008737;28;20310;-68
2023/09/20 02:45:36;;;;;;;5.45;4.25;;;15.40;99.90;;;;;;5083593;27;20256;-70
2023/09/20 02:48:28;;;;;;;7.13;4.20;;;15.40;99.90;;;;;;4995825;28;20222;-71
2023/09/20 02:51:18;;;;;;;8.63;4.45;;;15.30;99.90;;;;;;5078556;27;20244;-70
2023/09/20 02:54:08;;;;;;;7.72;4.50;;;15.40;99.90;;;;;;5007082;28;20218;-69
2023/09/20 02:56:58;;;;;;;8.75;4.00;;;15.40;99.90;;;;;;5020908;28;20256;-70
2023/09/20 02:59:47;;;;;;;6.32;4.40;;;15.50;99.90;;;;;;4990370;28;20262;-69
2023/09/20 03:02:36;;;;;;;7.50;4.55;;;15.40;99.90;;;;;;5000293;28;20226;-71
2023/09/20 03:05:31;;;;;;;8.15;4.28;;;15.40;99.90;;;;;;4997703;28;20628;-69
2023/09/20 03:08:24;;;;;;;11.65;4.88;;;15.40;99.90;;;;;;5006738;28;20590;-68
2023/09/20 03:11:21;;;;;;;7.68;4.63;;;15.30;99.90;;;;;;4998660;28;20578;-71
2023/09/20 03:14:12;;;;;;;7.75;4.47;;;15.30;99.90;;;;;;5092292;27;20693;-71
2023/09/20 03:17:02;;;;;;;5.78;4.38;;;15.40;99.90;;;;;;4989299;28;20228;-71
2023/09/20 03:19:55;;;;;;;6.63;4.40;;;15.40;99.90;;;;;;5002014;28;20214;-70
2023/09/20 03:22:46;;;;;;;7.35;4.22;;;15.40;99.90;;;;;;4997374;28;20325;-72
2023/09/20 03:25:36;;;;;;;6.13;4.28;;;15.20;99.90;;;;;;5003970;28;20593;-72
2023/09/20 03:28:48;;;;;;;9.65;4.72;;;15.20;99.90;;;;;;5080693;27;20744;-70
2023/09/20 03:31:42;;;;;;;8.60;4.40;;;15.30;99.90;;;;;;5006984;28;20721;-70
2023/09/20 03:34:31;;;;;;;7.30;4.40;;;15.30;99.90;;;;;;5077713;27;20228;-69
2023/09/20 03:37:21;;;;;;;7.93;4.18;;;15.30;99.90;;;;;;5083510;27;20209;-69
2023/09/20 03:40:17;;;;;;;8.07;4.43;;;15.40;99.90;;;;;;5005629;28;20210;-69
2023/09/20 03:43:08;;;;;;;6.40;4.20;;;15.20;99.90;;;;;;5093417;27;20224;-71
2023/09/20 03:46:03;;;;;;;6.38;4.40;;;15.20;99.90;;;;;;5013876;28;20315;-71
2023/09/20 03:48:53;;;;;;;7.80;4.60;;;15.20;99.90;;;;;;5081685;27;20222;-71
2023/09/20 03:51:43;;;;;;;5.70;4.32;;;15.30;99.90;;;;;;5000737;28;20256;-72
2023/09/20 03:54:32;;;;;;;6.30;4.28;;;15.30;99.90;;;;;;5000095;28;20226;-71
2023/09/20 03:57:24;;;;;;;8.73;4.57;;;15.20;99.90;;;;;;5011576;28;20541;-67
2023/09/20 04:00:17;;;;;;;7.28;4.43;;;15.20;99.90;;;;;;5011647;28;20237;-70
2023/09/20 04:03:11;;;;;;;10.45;4.60;;;15.20;99.90;;;;;;5010310;28;20225;-70
2023/09/20 04:06:01;;;;;;;10.32;4.70;;;15.20;99.90;;;;;;5082704;27;20225;-70
2023/09/20 04:08:52;;;;;;;12.45;4.93;;;15.20;99.90;;;;;;5001998;28;20236;-70
2023/09/20 04:11:43;;;;;;;9.43;4.88;;;15.10;99.90;;;;;;5031493;28;20325;-69
2023/09/20 04:14:33;;;;;;;6.00;4.65;;;15.20;99.90;;;;;;5012108;28;20286;-68
2023/09/20 04:17:25;;;;;;;8.05;4.57;;;15.20;99.90;;;;;;5017316;28;20221;-68
2023/09/20 04:20:15;;;;;;;11.38;5.30;;;15.10;99.90;;;;;;5014866;27;20221;-69
2023/09/20 04:23:04;;;;;;;8.60;5.93;;;15.10;99.90;;;;;;5026268;28;20221;-68
2023/09/20 04:25:53;;;;;;;8.88;5.13;;;15.10;99.90;;;;;;5011346;27;20253;-68
2023/09/20 04:28:48;;;;;;;7.22;5.13;;;15.10;99.90;;;;;;5011995;27;20245;-68
2023/09/20 04:31:40;;;;;;;9.93;5.10;;;15.20;99.90;;;;;;5082484;27;20596;-67
2023/09/20 04:34:30;;;;;;;9.02;5.93;;;15.30;99.90;;;;;;4996448;28;20218;-71
2023/09/20 04:37:19;;;;;;;11.45;5.85;;;15.30;99.90;;;;;;4997851;28;20218;-69
2023/09/20 04:40:09;;;;;;;9.25;5.88;;;15.40;99.90;;;;;;4997194;28;20244;-72
2023/09/20 04:42:59;;;;;;;7.18;5.78;;;15.40;99.90;;;;;;5015574;27;20230;-72
2023/09/20 04:45:50;;;;;;;11.98;6.47;;;15.40;99.90;;;;;;4996777;28;20228;-70
2023/09/20 04:48:44;;;;;;;7.97;6.00;;;15.40;99.90;;;;;;5006801;27;20225;-71
2023/09/20 04:51:35;;;;;;;7.05;5.57;;;15.40;99.90;;;;;;5071360;27;20450;-71
2023/09/20 04:54:25;;;;;;;10.55;5.85;;;15.40;99.90;;;;;;5001578;28;20222;-71
2023/09/20 04:57:14;;;;;;;11.20;5.97;;;15.50;99.90;;;;;;5004207;28;20225;-70
2023/09/20 05:00:07;;;;;;;9.10;5.70;;;15.60;99.90;;;;;;4997228;28;20878;-71
2023/09/20 05:02:57;;;;;;;9.32;6.07;;;15.70;99.90;;;;;;4992358;28;20221;-69
2023/09/20 05:05:50;;;;;;;8.02;5.47;;;15.60;99.90;;;;;;4998088;28;20735;-69
2023/09/20 05:08:42;;;;;;;9.23;5.40;;;15.70;99.90;;;;;;4993336;28;20226;-69
2023/09/20 05:11:31;;;;;;;7.63;4.95;;;15.70;99.90;;;;;;4992636;28;20323;-70
2023/09/20 05:14:20;;;;;;;10.63;5.35;;;15.80;99.90;;;;;;5074686;27;20222;-69
2023/09/20 05:17:09;;;;;;;9.20;5.00;;;15.70;99.90;;;;;;4999134;28;20222;-68
2023/09/20 05:20:00;;;;;;;10.57;5.88;;;15.80;99.90;;;;;;5083043;27;20221;-69
2023/09/20 05:22:51;;;;;;;8.60;5.28;;;15.90;99.90;;;;;;4996861;28;20222;-69
2023/09/20 05:25:40;;;;;;;9.57;5.40;;;16.00;99.90;;;;;;5002165;28;20275;-69
2023/09/20 05:28:29;;;;;;;7.70;5.43;;;15.90;99.90;;;;;;5000515;28;20218;-70
2023/09/20 05:31:18;;;;;;;11.82;5.72;;;16.00;99.90;;;;;;5096525;27;20303;-70
2023/09/20 05:34:07;;;;;;;7.97;6.10;;;16.00;99.90;;;;;;5009189;28;20230;-69
2023/09/20 05:36:56;;;;;;;8.82;5.80;;;16.00;99.90;;;;;;4995548;28;20222;-71
2023/09/20 05:39:48;;;;;;;8.95;5.95;;;16.10;99.90;;;;;;5062534;27;20309;-71
2023/09/20 05:42:37;;;;;;;8.88;6.00;;;16.10;99.90;;;;;;5076716;27;20210;-71
2023/09/20 05:45:26;;;;;;;10.75;6.40;;;16.10;99.90;;;;;;5011695;28;20567;-69
2023/09/20 05:48:16;;;;;;;7.53;5.93;;;16.20;99.90;;;;;;5009278;27;20265;-71
2023/09/20 05:51:05;;;;;;;7.53;5.75;;;16.20;99.90;;;;;;5004636;28;20580;-71
2023/09/20 05:53:54;;;;;;;14.32;6.43;;;16.20;99.90;;;;;;5005487;28;20231;-70
2023/09/20 05:56:47;;;;;;;8.45;6.18;;;16.30;99.90;;;;;;4999634;28;20684;-71
2023/09/20 05:59:37;;;;;;;8.00;6.05;;;16.40;99.90;;;;;;5013580;27;20229;-70
2023/09/20 06:02:25;;;;;;;7.63;5.70;;;16.50;99.90;;;;;;4999783;28;20827;-69
2023/09/20 06:05:15;;;;;;;10.93;6.28;;;16.50;99.90;;;;;;5006073;28;20227;-70
2023/09/20 06:08:06;;;;;;;10.35;6.25;;;16.60;99.90;;;;;;5094596;27;20234;-70
2023/09/20 06:10:55;;;;;;;8.45;5.63;;;16.70;99.90;;;;;;5004867;28;20335;-70
2023/09/20 06:13:45;;;;;;;8.85;6.15;;;16.60;99.90;;;;;;5079607;27;20283;-72
2023/09/20 06:16:34;;;;;;;10.85;6.10;;;16.60;99.90;;;;;;5093836;27;20256;-72
2023/09/20 06:19:24;;;;;;;11.35;6.28;;;16.70;99.90;;;;;;5013879;28;20658;-71
2023/09/20 06:22:15;;;;;;;7.75;5.90;;;16.80;99.90;;;;;;5013137;28;20225;-72
2023/09/20 06:25:05;;;;;;;7.90;6.43;;;16.90;99.90;;;;;;5015735;28;20317;-71
2023/09/20 06:27:54;;;;;;;6.95;5.88;;;17.00;99.90;;;;;;5017652;28;20626;-69
2023/09/20 06:30:44;;;;;;;7.97;5.70;;;17.10;99.90;;;;;;5003415;28;20225;-72
2023/09/20 06:33:33;;;;;;;10.15;5.60;;;17.20;99.90;;;;;;4999387;28;20233;-72
2023/09/20 06:36:23;;;;;;;10.52;6.50;;;17.20;99.90;;;;;;5008332;28;20233;-71
2023/09/20 06:39:13;;;;;;;10.45;5.88;;;17.20;99.90;;;;;;5080870;27;20226;-71
2023/09/20 06:42:02;;;;;;;15.23;5.82;;;17.30;99.90;;;;;;5019389;27;20222;-71
2023/09/20 06:44:51;;;;;;;9.27;5.70;;;17.30;99.90;;;;;;5004979;28;20226;-70
2023/09/20 06:47:43;;;;;;;9.10;5.78;;;17.40;99.90;;;;;;4996826;28;20248;-71
2023/09/20 06:50:32;;;;;;;10.32;5.82;;;17.50;99.90;;;;;;5014851;28;20232;-71
2023/09/20 06:53:23;;;;;;;11.27;5.60;;;17.50;99.90;;;;;;5015954;27;20258;-71
2023/09/20 06:56:13;;;;;;;7.43;5.05;;;17.60;99.90;;;;;;5007181;27;20226;-70
2023/09/20 06:59:02;;;;;;;7.78;5.68;;;17.70;99.90;;;;;;5092299;27;20238;-71
2023/09/20 07:01:53;;;;;;;7.13;5.72;;;17.70;99.90;;;;;;5010960;28;20221;-71
2023/09/20 07:04:44;;;;;;;8.77;5.25;;;17.80;99.90;;;;;;5005225;28;20256;-71
2023/09/20 07:07:33;;;;;;;9.35;5.22;;;17.80;99.90;;;;;;4999751;28;20230;-71
2023/09/20 07:10:22;;;;;;;7.95;5.45;;;17.90;99.90;;;;;;5000806;28;20495;-70
2023/09/20 07:13:12;;;;;;;7.72;5.28;;;17.90;99.90;;;;;;5007639;27;20233;-71
2023/09/20 07:16:04;;;;;;;8.20;4.82;;;18.00;99.90;;;;;;4998205;28;20233;-72
2023/09/20 07:18:55;;;;;;;9.30;4.70;;;18.10;99.90;;;;;;5016102;28;20306;-72
2023/09/20 07:21:46;;;;;;;11.07;5.03;;;18.20;99.90;;;;;;5014563;28;20699;-72
2023/09/20 07:24:35;;;;;;;9.57;4.57;;;18.30;99.90;;;;;;5010996;28;20229;-70
2023/09/20 07:27:24;;;;;;;6.70;4.30;;;18.40;99.90;;;;;;5087885;27;20600;-71
2023/09/20 07:30:17;;;;;;;6.38;4.40;;;18.60;99.90;;;;;;5024934;28;20228;-71
2023/09/20 07:33:11;;;;;;;6.10;4.40;;;18.70;99.90;;;;;;5009210;28;20775;-71
2023/09/20 07:36:02;;;;;;;8.77;4.95;;;18.90;99.90;;;;;;5025124;27;20228;-71
2023/09/20 07:38:53;;;;;;;6.22;3.95;;;19.10;99.90;;;;;;4998341;28;20213;-72
2023/09/20 07:41:44;;;;;;;9.90;4.53;;;19.30;99.90;;;;;;5008005;28;20870;-70
2023/09/20 07:44:35;;;;;;;7.15;4.07;;;19.60;99.90;;;;;;5001302;28;20613;-71
2023/09/20 07:47:27;;;;;;;6.97;4.10;;;20.00;99.90;;;;;;5019721;28;20336;-71
2023/09/20 07:50:16;;;;;;;6.88;3.88;;;20.30;99.90;;;;;;5012056;28;20262;-74
2023/09/20 07:53:06;;;;;;;11.15;3.95;;;20.70;99.90;;;;;;5016602;28;20739;-73
2023/09/20 07:56:01;;;;;;;8.45;3.67;;;21.00;99.90;;;;;;5084807;27;20252;-72
2023/09/20 07:58:51;;;;;;;8.40;3.67;;;21.30;99.90;;;;;;5087763;27;20317;-73
2023/09/20 08:01:42;;;;;;;11.00;3.85;;;21.60;99.90;;;;;;4995866;28;20771;-71
2023/09/20 08:04:37;;;;;;;6.13;3.55;;;21.80;99.90;;;;;;5018364;27;20237;-72
2023/09/20 08:07:26;;;;;;;4.20;2.95;;;22.10;99.90;;;;;;5003622;28;20221;-72
2023/09/20 08:10:16;;;;;;;5.65;3.83;;;22.40;99.90;;;;;;5008868;28;20301;-72
2023/09/20 08:13:06;;;;;;;4.60;3.80;;;22.60;99.90;;;;;;5009729;28;20217;-72
2023/09/20 08:15:55;;;;;;;5.65;3.78;;;22.80;99.90;;;;;;5090879;27;20248;-73
2023/09/20 08:21:51;;;;;;;5.70;3.63;;;23.20;99.90;;;;;;5023542;28;20254;-71
2023/09/20 09:02:14;;;;;;;9.70;3.38;;;26.50;1.00;;;;;;5031954;27;20229;-73
2023/09/20 09:05:05;;;;;;;7.22;3.30;;;26.30;1.00;;;;;;5009767;28;20226;-71
2023/09/20 09:07:55;;;;;;;4.32;3.20;;;25.50;7.70;;;;;;5017423;28;20221;-73
2023/09/20 09:10:47;;;;;;;5.55;3.63;;;24.60;88.20;;;;;;4993070;28;20228;-72
2023/09/20 09:13:40;;;;;;;5.38;3.35;;;24.00;99.90;;;;;;5000981;28;20602;-73
2023/09/20 09:16:32;;;;;;;4.93;3.40;;;23.50;99.90;;;;;;4995460;28;20333;-74
2023/09/20 09:19:23;;;;;;;5.60;3.40;;;23.20;99.90;;;;;;5009333;28;20656;-72
2023/09/20 09:22:12;;;;;;;6.18;2.90;;;22.90;99.90;;;;;;5004058;28;20289;-71
2023/09/20 09:25:01;;;;;;;6.82;2.72;;;22.80;99.90;;;;;;5008978;28;20218;-71
2023/09/20 09:27:50;;;;;;;5.43;3.10;;;22.40;99.90;;;;;;5082989;27;20225;-71
2023/09/20 09:30:39;;;;;;;5.13;2.90;;;22.40;99.90;;;;;;5030442;27;20226;-71
2023/09/20 09:33:28;;;;;;;4.93;2.70;;;22.30;99.90;;;;;;4999139;28;20248;-72
2023/09/20 09:36:22;;;;;;;5.63;3.17;;;22.10;99.90;;;;;;5011396;28;20312;-70
2023/09/20 09:39:14;;;;;;;8.52;3.15;;;22.10;99.90;;;;;;5020087;27;20493;-70
2023/09/20 09:42:26;;;;;;;7.57;2.92;;;22.10;99.90;;;;;;5021071;28;20634;-71
2023/09/20 09:45:29;;;;;;;6.30;2.80;;;22.10;99.90;;;;;;5040293;28;20217;-70
2023/09/20 09:48:18;;;;;;;6.90;3.20;;;22.00;99.90;;;;;;5018499;27;20221;-70
2023/09/20 09:51:08;;;;;;;9.63;3.13;;;22.10;99.90;;;;;;4990982;28;20702;-69
2023/09/20 09:54:02;;;;;;;8.20;3.80;;;22.00;99.90;;;;;;5012448;28;20236;-70
2023/09/20 09:56:51;;;;;;;5.78;3.00;;;21.90;99.90;;;;;;5012103;28;20221;-72
2023/09/20 09:59:40;;;;;;;7.07;3.88;;;21.90;99.90;;;;;;5022104;28;20225;-70
2023/09/20 10:02:33;;;;;;;5.95;3.15;;;21.90;99.90;;;;;;5006646;28;20279;-71
2023/09/20 10:05:24;;;;;;;8.52;3.50;;;21.90;99.90;;;;;;5006827;28;20210;-71
2023/09/20 10:08:17;;;;;;;8.73;3.10;;;21.90;99.90;;;;;;5004276;28;20649;-69
2023/09/20 10:11:08;;;;;;;5.15;3.50;;;21.90;99.90;;;;;;4996257;28;20703;-70
2023/09/20 10:14:00;;;;;;;6.47;3.40;;;21.90;99.90;;;;;;5085968;27;20696;-72
2023/09/20 10:16:50;;;;;;;9.77;2.85;;;21.90;99.90;;;;;;5084766;28;20320;-69
2023/09/20 10:19:39;;;;;;;4.03;2.50;;;21.90;99.90;;;;;;5024837;27;20226;-69
2023/09/20 10:22:34;;;;;;;4.97;2.85;;;21.90;99.90;;;;;;5028179;28;20492;-70
2023/09/20 10:25:32;;;;;;;5.75;3.22;;;22.00;99.90;;;;;;5003710;28;20222;-70
2023/09/20 10:28:25;;;;;;;7.32;2.67;;;21.90;99.90;;;;;;5079279;27;20338;-70
2023/09/20 10:31:18;;;;;;;10.02;3.30;;;21.90;99.90;;;;;;5016402;28;20221;-69
2023/09/20 10:34:10;;;;;;;6.97;3.45;;;21.90;99.90;;;;;;5004586;28;20304;-73
2023/09/20 10:37:08;;;;;;;7.07;3.17;;;22.00;99.90;;;;;;4995247;28;20681;-69
2023/09/20 10:39:59;;;;;;;7.40;3.20;;;22.00;99.90;;;;;;4999227;27;20517;-71
2023/09/20 10:42:52;;;;;;;7.20;2.83;;;22.10;99.90;;;;;;5019803;28;20223;-69
2023/09/20 10:45:50;;;;;;;5.32;2.95;;;22.20;99.90;;;;;;5013526;28;20708;-70
2023/09/20 10:48:43;;;;;;;9.57;3.75;;;22.20;99.90;;;;;;5066597;28;20235;-69
2023/09/20 10:51:48;;;;;;;8.40;2.70;;;22.20;99.90;;;;;;5009768;28;20226;-72
2023/09/20 10:54:39;;;;;;;6.60;2.67;;;22.10;99.90;;;;;;4995055;28;20555;-71
2023/09/20 10:57:29;;;;;;;7.60;2.85;;;22.20;99.90;;;;;;5088868;28;20218;-70
2023/09/20 11:00:25;;;;;;;6.15;2.53;;;22.10;99.90;;;;;;5074313;28;20288;-72
2023/09/20 11:03:19;;;;;;;6.43;2.33;;;22.20;99.90;;;;;;5060296;28;20666;-70
2023/09/20 11:06:09;;;;;;;3.78;2.40;;;22.10;99.90;;;;;;4993649;28;20237;-70
2023/09/20 11:08:58;;;;;;;8.25;3.20;;;22.20;99.90;;;;;;5010424;28;20225;-70
2023/09/20 11:11:49;;;;;;;8.32;3.72;;;22.20;99.90;;;;;;5006835;28;20243;-71
2023/09/20 11:14:42;;;;;;;6.72;3.38;;;22.20;99.90;;;;;;5038378;28;20777;-70
2023/09/20 11:17:31;;;;;;;6.43;2.80;;;22.20;99.90;;;;;;5081587;28;20890;-71
2023/09/20 11:20:22;;;;;;;8.43;2.50;;;22.30;99.90;;;;;;5032328;28;20221;-70
2023/09/20 11:23:11;;;;;;;5.43;2.50;;;22.30;99.90;;;;;;5097301;28;20207;-72
2023/09/20 11:26:00;;;;;;;6.30;2.97;;;22.40;99.90;;;;;;5048382;28;20271;-71
2023/09/20 11:28:49;;;;;;;7.72;3.00;;;22.40;99.90;;;;;;5020472;28;20246;-71
2023/09/20 11:31:39;;;;;;;7.32;2.42;;;22.50;99.90;;;;;;5073313;27;20449;-72
2023/09/20 11:34:43;;;;;;;4.28;2.65;;;22.60;97.90;;;;;;5062300;28;20230;-71
2023/09/20 11:37:38;;;;;;;6.68;2.70;;;22.60;95.30;;;;;;5030187;28;20277;-71
2023/09/20 11:40:31;;;;;;;5.32;2.45;;;22.60;92.60;;;;;;5086400;28;20234;-71
2023/09/20 11:43:21;;;;;;;7.50;3.00;;;22.70;95.80;;;;;;5019548;28;20484;-72
2023/09/20 11:46:11;;;;;;;8.32;2.70;;;22.80;99.90;;;;;;4999322;28;20751;-72
2023/09/20 11:49:00;;;;;;;5.43;2.75;;;22.90;99.90;;;;;;5009178;28;21017;-70
2023/09/20 11:51:51;;;;;;;5.15;2.35;;;22.90;99.90;;;;;;5006697;27;20229;-72
2023/09/20 11:54:44;;;;;;;4.97;2.72;;;22.90;97.20;;;;;;5080427;27;20264;-71
2023/09/20 11:57:35;;;;;;;6.20;2.50;;;23.00;97.80;;;;;;5014553;28;20731;-72
2023/09/20 12:00:25;;;;;;;4.18;2.35;;;23.00;93.70;;;;;;5013684;28;20382;-71
2023/09/20 12:03:14;;;;;;;4.18;2.35;;;23.00;91.70;;;;;;5011769;28;20225;-71
2023/09/20 12:06:03;;;;;;;4.32;2.25;;;23.00;96.20;;;;;;5006627;27;20233;-72
2023/09/20 12:08:53;;;;;;;8.68;2.58;;;23.00;99.90;;;;;;5047080;28;20752;-71
2023/09/20 12:11:43;;;;;;;4.07;2.55;;;23.00;99.40;;;;;;5021609;28;20412;-72
2023/09/20 12:14:33;;;;;;;5.10;2.88;;;22.90;99.90;;;;;;5017334;28;20208;-70
2023/09/20 12:17:22;;;;;;;6.05;2.22;;;22.80;99.90;;;;;;5009508;28;20241;-70
2023/09/20 12:20:15;;;;;;;5.45;2.20;;;22.80;99.90;;;;;;5081678;27;20621;-70
2023/09/20 12:23:05;;;;;;;5.45;2.40;;;22.80;98.10;;;;;;5097218;27;20227;-70
2023/09/20 12:25:54;;;;;;;4.90;2.20;;;22.80;98.10;;;;;;5020696;27;20227;-72
2023/09/20 12:28:45;;;;;;;5.25;2.47;;;22.70;97.20;;;;;;5035243;28;20398;-71
2023/09/20 12:31:33;;;;;;;3.58;2.13;;;22.70;99.90;;;;;;5049774;28;20226;-71
2023/09/20 12:34:22;;;;;;;7.22;2.75;;;22.70;99.90;;;;;;5011931;27;20233;-72
2023/09/20 12:37:11;;;;;;;7.63;3.00;;;22.70;99.90;;;;;;5012233;28;20218;-72
2023/09/20 12:40:05;;;;;;;5.78;2.40;;;22.70;99.90;;;;;;5018210;28;20229;-72
2023/09/20 12:42:54;;;;;;;6.90;2.50;;;22.70;99.90;;;;;;5018904;27;20225;-71
2023/09/20 12:45:46;;;;;;;20.08;16.67;;;22.60;99.90;;;;;;5063535;27;20931;-72
2023/09/20 12:48:36;;;;;;;5.30;2.88;;;22.80;99.90;;;;;;5091052;27;20225;-69
2023/09/20 12:51:26;;;;;;;5.70;2.80;;;22.80;99.90;;;;;;5015096;28;20221;-68
2023/09/20 12:54:16;;;;;;;5.88;2.83;;;22.90;99.90;;;;;;5088383;27;20269;-69
2023/09/20 12:57:05;;;;;;;5.40;2.75;;;22.80;99.90;;;;;;5093123;27;20312;-72
2023/09/20 12:59:56;;;;;;;6.32;2.85;;;22.90;99.90;;;;;;5014515;28;20226;-72
2023/09/20 13:02:47;;;;;;;7.15;2.80;;;22.90;99.90;;;;;;5013653;28;20236;-71
2023/09/20 13:05:37;;;;;;;4.93;2.40;;;22.90;99.90;;;;;;5085548;27;20885;-71
2023/09/20 13:08:41;;;;;;;7.88;2.80;;;22.90;99.60;;;;;;5008090;28;20227;-73
2023/09/20 13:11:30;;;;;;;3.95;2.40;;;22.80;98.50;;;;;;5015266;28;20240;-74
2023/09/20 13:14:20;;;;;;;5.00;2.65;;;22.90;98.90;;;;;;5026454;27;20241;-73
2023/09/20 13:17:09;;;;;;;8.57;2.30;;;22.90;99.90;;;;;;4997759;28;20795;-72
2023/09/20 13:20:00;;;;;;;6.18;2.78;;;22.90;99.90;;;;;;4989898;28;20219;-72
2023/09/20 13:22:52;;;;;;;6.40;3.05;;;22.90;99.90;;;;;;5005991;27;20621;-71
2023/09/20 13:25:42;;;;;;;5.40;3.08;;;22.80;99.90;;;;;;5001754;27;20257;-72
2023/09/20 13:28:32;;;;;;;5.78;2.70;;;22.80;99.90;;;;;;4998636;28;20226;-73
2023/09/20 13:31:21;;;;;;;8.05;2.78;;;22.80;99.90;;;;;;5008675;28;20617;-73
2023/09/20 13:34:14;;;;;;;5.25;2.55;;;22.70;99.90;;;;;;5016372;28;20244;-73
2023/09/20 13:37:04;;;;;;;7.45;2.33;;;22.60;99.90;;;;;;5038190;28;20600;-72
2023/09/20 13:39:54;;;;;;;6.32;2.78;;;22.50;99.90;;;;;;5029755;27;20278;-73
2023/09/20 13:42:44;;;;;;;4.47;2.42;;;22.50;99.90;;;;;;5023022;28;20746;-71
2023/09/20 13:45:33;;;;;;;8.85;2.50;;;22.40;99.90;;;;;;5002934;28;20237;-71
2023/09/20 13:48:23;;;;;;;6.15;2.50;;;22.40;99.90;;;;;;5112613;27;20225;-72
2023/09/20 13:51:15;;;;;;;5.25;2.78;;;22.40;99.90;;;;;;5016101;28;20221;-72
2023/09/20 13:54:06;;;;;;;6.85;3.35;;;22.40;99.90;;;;;;4979768;28;20496;-73
2023/09/20 13:56:59;;;;;;;4.63;2.65;;;22.50;99.90;;;;;;4993808;28;20241;-71
2023/09/20 13:59:49;;;;;;;4.88;2.75;;;22.50;99.90;;;;;;4989716;28;20253;-71
2023/09/20 14:02:40;;;;;;;5.90;2.90;;;22.50;99.90;;;;;;4995732;28;20263;-70
2023/09/20 14:05:29;;;;;;;4.72;2.40;;;22.50;99.90;;;;;;5013883;27;20229;-73
2023/09/20 14:08:19;;;;;;;6.80;2.72;;;22.50;99.90;;;;;;5005182;28;20228;-72
2023/09/20 14:11:12;;;;;;;4.22;2.58;;;22.40;99.90;;;;;;5018665;27;20224;-70
2023/09/20 14:14:04;;;;;;;6.57;2.70;;;22.40;99.90;;;;;;5074683;27;20255;-70
2023/09/20 14:16:54;;;;;;;4.65;2.42;;;22.50;99.90;;;;;;5008728;28;20319;-70
2023/09/20 14:19:43;;;;;;;6.32;2.70;;;22.50;99.90;;;;;;5008584;27;20214;-71
2023/09/20 14:22:32;;;;;;;3.92;2.70;;;22.50;99.90;;;;;;5004594;28;20317;-71
2023/09/20 14:25:22;;;;;;;5.97;2.70;;;22.50;99.90;;;;;;5009914;28;20580;-68
2023/09/20 14:28:13;;;;;;;6.05;2.75;;;22.40;99.90;;;;;;5075033;27;20213;-71
2023/09/20 14:31:02;;;;;;;5.78;2.83;;;22.40;99.90;;;;;;5033494;27;20889;-71
2023/09/20 14:33:51;;;;;;;6.10;3.10;;;22.30;99.90;;;;;;5008302;28;20248;-70
2023/09/20 14:36:41;;;;;;;5.40;3.03;;;22.30;99.90;;;;;;4998025;28;20230;-70
2023/09/20 14:39:30;;;;;;;4.70;2.97;;;22.30;99.90;;;;;;4995342;28;20275;-71
2023/09/20 14:42:19;;;;;;;4.97;2.55;;;22.20;99.90;;;;;;5011511;28;20271;-71
2023/09/20 14:45:11;;;;;;;4.75;2.63;;;22.30;99.90;;;;;;5009550;28;20213;-71
2023/09/20 14:48:03;;;;;;;4.50;2.50;;;22.30;99.90;;;;;;5013644;28;20852;-70
2023/09/20 14:51:01;;;;;;;5.53;2.55;;;22.40;99.90;;;;;;5010738;28;20366;-72
2023/09/20 14:53:51;;;;;;;4.85;2.70;;;22.40;99.90;;;;;;5002718;28;20229;-72
2023/09/20 14:56:43;;;;;;;5.57;3.17;;;22.40;99.90;;;;;;5010574;28;20237;-71
2023/09/20 14:59:32;;;;;;;6.55;2.80;;;22.40;99.90;;;;;;4996696;28;20680;-71
2023/09/20 15:02:23;;;;;;;3.90;2.97;;;22.30;99.90;;;;;;4993188;28;20230;-70
2023/09/20 15:05:13;;;;;;;5.53;3.13;;;22.30;99.90;;;;;;4996807;28;20230;-69
2023/09/20 15:08:02;;;;;;;6.63;2.55;;;22.20;99.90;;;;;;5011693;28;20221;-71
2023/09/20 15:10:56;;;;;;;5.03;3.10;;;22.10;99.90;;;;;;5028668;28;20283;-67
2023/09/20 15:13:48;;;;;;;6.90;2.67;;;22.10;99.90;;;;;;5039530;28;20659;-70
2023/09/20 15:16:37;;;;;;;6.28;2.53;;;22.00;99.90;;;;;;4991830;28;20336;-71
2023/09/20 15:19:28;;;;;;;4.10;2.70;;;22.00;99.90;;;;;;5075878;28;20226;-71
2023/09/20 15:22:17;;;;;;;3.33;2.35;;;21.90;99.90;;;;;;4994395;28;20241;-70
2023/09/20 15:25:08;;;;;;;6.72;3.28;;;21.90;99.90;;;;;;4995981;28;20230;-70
2023/09/20 15:27:57;;;;;;;9.05;5.85;;;21.90;99.90;;;;;;5077658;27;20305;-70